sensor_id;sensor_type;location;lat;lon;timestamp;pressure;altitude;pressure_sealevel;temperature
68743;BMP180;55725;42.758;26.702;2022-07-01T00:00:42;99165.00;;;18.40
68743;BMP180;55725;42.758;26.702;2022-07-01T00:02:22;99159.00;;;18.60
68743;BMP180;55725;42.758;26.702;2022-07-01T00:04:03;99161.00;;;18.20
68743;BMP180;55725;42.758;26.702;2022-07-01T00:05:43;99153.00;;;18.20
68743;BMP180;55725;42.758;26.702;2022-07-01T00:07:24;99158.00;;;18.50
68743;BMP180;55725;42.758;26.702;2022-07-01T00:09:04;99150.00;;;18.30
68743;BMP180;55725;42.758;26.702;2022-07-01T00:10:44;99147.00;;;18.20
68743;BMP180;55725;42.758;26.702;2022-07-01T00:12:25;99147.00;;;18.30
68743;BMP180;55725;42.758;26.702;2022-07-01T00:14:05;99152.00;;;18.30
68743;BMP180;55725;42.758;26.702;2022-07-01T00:15:46;99150.00;;;18.20
68743;BMP180;55725;42.758;26.702;2022-07-01T00:17:26;99137.00;;;18.20
68743;BMP180;55725;42.758;26.702;2022-07-01T00:19:07;99143.00;;;18.10
68743;BMP180;55725;42.758;26.702;2022-07-01T00:20:47;99136.00;;;18.30
68743;BMP180;55725;42.758;26.702;2022-07-01T00:22:27;99141.00;;;18.20
68743;BMP180;55725;42.758;26.702;2022-07-01T00:24:08;99136.00;;;18.00
68743;BMP180;55725;42.758;26.702;2022-07-01T00:25:48;99132.00;;;18.00
68743;BMP180;55725;42.758;26.702;2022-07-01T00:27:28;99138.00;;;17.90
68743;BMP180;55725;42.758;26.702;2022-07-01T00:29:09;99142.00;;;18.10
68743;BMP180;55725;42.758;26.702;2022-07-01T00:30:49;99131.00;;;17.80
68743;BMP180;55725;42.758;26.702;2022-07-01T00:32:29;99122.00;;;17.80
68743;BMP180;55725;42.758;26.702;2022-07-01T00:34:10;99130.00;;;17.90
68743;BMP180;55725;42.758;26.702;2022-07-01T00:35:50;99117.00;;;17.80
68743;BMP180;55725;42.758;26.702;2022-07-01T00:37:32;99128.00;;;17.90
68743;BMP180;55725;42.758;26.702;2022-07-01T00:39:12;99128.00;;;18.00
68743;BMP180;55725;42.758;26.702;2022-07-01T00:40:53;99129.00;;;18.00
68743;BMP180;55725;42.758;26.702;2022-07-01T00:42:37;99124.00;;;17.90
68743;BMP180;55725;42.758;26.702;2022-07-01T00:44:18;99129.00;;;18.00
68743;BMP180;55725;42.758;26.702;2022-07-01T00:45:58;99119.00;;;18.00
68743;BMP180;55725;42.758;26.702;2022-07-01T00:47:39;99115.00;;;17.90
68743;BMP180;55725;42.758;26.702;2022-07-01T00:49:20;99107.00;;;17.60
68743;BMP180;55725;42.758;26.702;2022-07-01T00:51:01;99111.00;;;18.00
68743;BMP180;55725;42.758;26.702;2022-07-01T00:52:43;99116.00;;;18.00
68743;BMP180;55725;42.758;26.702;2022-07-01T00:54:24;99120.00;;;17.70
68743;BMP180;55725;42.758;26.702;2022-07-01T00:56:04;99112.00;;;17.70
68743;BMP180;55725;42.758;26.702;2022-07-01T00:57:45;99116.00;;;17.80
68743;BMP180;55725;42.758;26.702;2022-07-01T00:59:25;99122.00;;;17.90
68743;BMP180;55725;42.758;26.702;2022-07-01T01:01:06;99109.00;;;17.80
68743;BMP180;55725;42.758;26.702;2022-07-01T01:02:46;99118.00;;;18.00
68743;BMP180;55725;42.758;26.702;2022-07-01T01:04:26;99112.00;;;17.80
68743;BMP180;55725;42.758;26.702;2022-07-01T01:06:07;99111.00;;;17.90
68743;BMP180;55725;42.758;26.702;2022-07-01T01:07:48;99105.00;;;17.60
68743;BMP180;55725;42.758;26.702;2022-07-01T01:09:30;99096.00;;;17.60
68743;BMP180;55725;42.758;26.702;2022-07-01T01:11:10;99097.00;;;17.40
68743;BMP180;55725;42.758;26.702;2022-07-01T01:12:51;99099.00;;;17.70
68743;BMP180;55725;42.758;26.702;2022-07-01T01:14:45;99090.00;;;17.60
68743;BMP180;55725;42.758;26.702;2022-07-01T01:16:25;99099.00;;;17.70
68743;BMP180;55725;42.758;26.702;2022-07-01T01:18:06;99106.00;;;17.90
68743;BMP180;55725;42.758;26.702;2022-07-01T01:19:46;99091.00;;;17.60
68743;BMP180;55725;42.758;26.702;2022-07-01T01:21:27;99099.00;;;17.90
68743;BMP180;55725;42.758;26.702;2022-07-01T01:23:08;99096.00;;;17.80
68743;BMP180;55725;42.758;26.702;2022-07-01T01:24:48;99097.00;;;17.70
68743;BMP180;55725;42.758;26.702;2022-07-01T01:26:28;99104.00;;;17.40
68743;BMP180;55725;42.758;26.702;2022-07-01T01:28:09;99088.00;;;17.20
68743;BMP180;55725;42.758;26.702;2022-07-01T01:29:50;99087.00;;;17.30
68743;BMP180;55725;42.758;26.702;2022-07-01T01:31:31;99091.00;;;17.10
68743;BMP180;55725;42.758;26.702;2022-07-01T01:33:13;99095.00;;;17.80
68743;BMP180;55725;42.758;26.702;2022-07-01T01:34:53;99083.00;;;17.50
68743;BMP180;55725;42.758;26.702;2022-07-01T01:36:33;99088.00;;;18.20
68743;BMP180;55725;42.758;26.702;2022-07-01T01:38:14;99086.00;;;18.30
68743;BMP180;55725;42.758;26.702;2022-07-01T01:39:54;99087.00;;;18.20
68743;BMP180;55725;42.758;26.702;2022-07-01T01:41:34;99083.00;;;18.10
68743;BMP180;55725;42.758;26.702;2022-07-01T01:43:15;99082.00;;;17.50
68743;BMP180;55725;42.758;26.702;2022-07-01T01:44:56;99098.00;;;18.20
68743;BMP180;55725;42.758;26.702;2022-07-01T01:46:36;99094.00;;;18.20
68743;BMP180;55725;42.758;26.702;2022-07-01T01:48:17;99097.00;;;18.10
68743;BMP180;55725;42.758;26.702;2022-07-01T01:49:58;99099.00;;;18.10
68743;BMP180;55725;42.758;26.702;2022-07-01T01:51:38;99095.00;;;18.20
68743;BMP180;55725;42.758;26.702;2022-07-01T01:53:18;99101.00;;;17.90
68743;BMP180;55725;42.758;26.702;2022-07-01T01:54:59;99102.00;;;18.00
68743;BMP180;55725;42.758;26.702;2022-07-01T01:56:40;99104.00;;;18.30
68743;BMP180;55725;42.758;26.702;2022-07-01T01:58:20;99101.00;;;18.00
68743;BMP180;55725;42.758;26.702;2022-07-01T02:00:00;99104.00;;;18.30
68743;BMP180;55725;42.758;26.702;2022-07-01T02:01:41;99105.00;;;18.00
68743;BMP180;55725;42.758;26.702;2022-07-01T02:03:21;99096.00;;;18.20
68743;BMP180;55725;42.758;26.702;2022-07-01T02:05:02;99106.00;;;18.50
68743;BMP180;55725;42.758;26.702;2022-07-01T02:06:43;99094.00;;;18.30
68743;BMP180;55725;42.758;26.702;2022-07-01T02:08:23;99107.00;;;18.30
68743;BMP180;55725;42.758;26.702;2022-07-01T02:10:03;99101.00;;;18.30
68743;BMP180;55725;42.758;26.702;2022-07-01T02:11:44;99102.00;;;18.10
68743;BMP180;55725;42.758;26.702;2022-07-01T02:13:24;99102.00;;;18.40
68743;BMP180;55725;42.758;26.702;2022-07-01T02:15:05;99093.00;;;18.40
68743;BMP180;55725;42.758;26.702;2022-07-01T02:16:45;99102.00;;;18.20
68743;BMP180;55725;42.758;26.702;2022-07-01T02:18:26;99102.00;;;18.30
68743;BMP180;55725;42.758;26.702;2022-07-01T02:20:06;99108.00;;;18.30
68743;BMP180;55725;42.758;26.702;2022-07-01T02:21:47;99105.00;;;18.30
68743;BMP180;55725;42.758;26.702;2022-07-01T02:23:27;99111.00;;;18.50
68743;BMP180;55725;42.758;26.702;2022-07-01T02:25:09;99105.00;;;18.30
68743;BMP180;55725;42.758;26.702;2022-07-01T02:26:49;99101.00;;;18.20
68743;BMP180;55725;42.758;26.702;2022-07-01T02:28:30;99107.00;;;18.10
68743;BMP180;55725;42.758;26.702;2022-07-01T02:30:11;99110.00;;;18.20
68743;BMP180;55725;42.758;26.702;2022-07-01T02:31:51;99113.00;;;18.00
68743;BMP180;55725;42.758;26.702;2022-07-01T02:33:31;99103.00;;;18.40
68743;BMP180;55725;42.758;26.702;2022-07-01T02:35:12;99108.00;;;18.30
68743;BMP180;55725;42.758;26.702;2022-07-01T02:36:53;99106.00;;;17.80
68743;BMP180;55725;42.758;26.702;2022-07-01T02:38:35;99103.00;;;18.10
68743;BMP180;55725;42.758;26.702;2022-07-01T02:40:15;99112.00;;;17.90
68743;BMP180;55725;42.758;26.702;2022-07-01T02:41:56;99110.00;;;18.10
68743;BMP180;55725;42.758;26.702;2022-07-01T02:43:55;99101.00;;;17.80
68743;BMP180;55725;42.758;26.702;2022-07-01T02:45:35;99104.00;;;17.70
68743;BMP180;55725;42.758;26.702;2022-07-01T02:47:15;99098.00;;;17.60
68743;BMP180;55725;42.758;26.702;2022-07-01T02:48:56;99109.00;;;17.70
68743;BMP180;55725;42.758;26.702;2022-07-01T02:50:36;99109.00;;;17.40
68743;BMP180;55725;42.758;26.702;2022-07-01T02:52:17;99105.00;;;17.80
68743;BMP180;55725;42.758;26.702;2022-07-01T02:53:57;99112.00;;;17.70
68743;BMP180;55725;42.758;26.702;2022-07-01T02:55:37;99112.00;;;17.90
68743;BMP180;55725;42.758;26.702;2022-07-01T02:57:18;99111.00;;;17.70
68743;BMP180;55725;42.758;26.702;2022-07-01T02:58:58;99109.00;;;17.40
68743;BMP180;55725;42.758;26.702;2022-07-01T03:00:38;99113.00;;;17.00
68743;BMP180;55725;42.758;26.702;2022-07-01T03:02:19;99103.00;;;16.80
68743;BMP180;55725;42.758;26.702;2022-07-01T03:04:00;99103.00;;;17.80
68743;BMP180;55725;42.758;26.702;2022-07-01T03:05:40;99111.00;;;18.00
68743;BMP180;55725;42.758;26.702;2022-07-01T03:07:20;99107.00;;;18.10
68743;BMP180;55725;42.758;26.702;2022-07-01T03:09:02;99106.00;;;17.90
68743;BMP180;55725;42.758;26.702;2022-07-01T03:10:42;99106.00;;;17.90
68743;BMP180;55725;42.758;26.702;2022-07-01T03:12:23;99105.00;;;18.40
68743;BMP180;55725;42.758;26.702;2022-07-01T03:14:07;99095.00;;;18.10
68743;BMP180;55725;42.758;26.702;2022-07-01T03:15:48;99104.00;;;17.80
68743;BMP180;55725;42.758;26.702;2022-07-01T03:17:29;99093.00;;;17.80
68743;BMP180;55725;42.758;26.702;2022-07-01T03:19:10;99108.00;;;18.00
68743;BMP180;55725;42.758;26.702;2022-07-01T03:20:50;99110.00;;;18.00
68743;BMP180;55725;42.758;26.702;2022-07-01T03:22:32;99107.00;;;18.30
68743;BMP180;55725;42.758;26.702;2022-07-01T03:24:12;99110.00;;;18.10
68743;BMP180;55725;42.758;26.702;2022-07-01T03:25:52;99110.00;;;18.50
68743;BMP180;55725;42.758;26.702;2022-07-01T03:27:33;99115.00;;;18.40
68743;BMP180;55725;42.758;26.702;2022-07-01T03:29:13;99112.00;;;18.90
68743;BMP180;55725;42.758;26.702;2022-07-01T03:30:54;99116.00;;;18.80
68743;BMP180;55725;42.758;26.702;2022-07-01T03:32:34;99127.00;;;18.40
68743;BMP180;55725;42.758;26.702;2022-07-01T03:34:15;99123.00;;;18.60
68743;BMP180;55725;42.758;26.702;2022-07-01T03:35:55;99115.00;;;18.70
68743;BMP180;55725;42.758;26.702;2022-07-01T03:37:35;99117.00;;;18.80
68743;BMP180;55725;42.758;26.702;2022-07-01T03:39:16;99119.00;;;18.70
68743;BMP180;55725;42.758;26.702;2022-07-01T03:40:56;99115.00;;;18.70
68743;BMP180;55725;42.758;26.702;2022-07-01T03:42:36;99119.00;;;19.20
68743;BMP180;55725;42.758;26.702;2022-07-01T03:44:17;99109.00;;;18.80
68743;BMP180;55725;42.758;26.702;2022-07-01T03:45:57;99117.00;;;19.20
68743;BMP180;55725;42.758;26.702;2022-07-01T03:47:37;99114.00;;;19.10
68743;BMP180;55725;42.758;26.702;2022-07-01T03:49:18;99122.00;;;19.00
68743;BMP180;55725;42.758;26.702;2022-07-01T03:50:58;99130.00;;;19.40
68743;BMP180;55725;42.758;26.702;2022-07-01T03:52:38;99119.00;;;19.20
68743;BMP180;55725;42.758;26.702;2022-07-01T03:54:20;99118.00;;;19.10
68743;BMP180;55725;42.758;26.702;2022-07-01T03:56:10;99115.00;;;19.20
68743;BMP180;55725;42.758;26.702;2022-07-01T03:57:50;99131.00;;;19.30
68743;BMP180;55725;42.758;26.702;2022-07-01T03:59:31;99120.00;;;19.20
68743;BMP180;55725;42.758;26.702;2022-07-01T04:01:12;99124.00;;;19.60
68743;BMP180;55725;42.758;26.702;2022-07-01T04:02:52;99126.00;;;19.40
68743;BMP180;55725;42.758;26.702;2022-07-01T04:04:33;99120.00;;;19.40
68743;BMP180;55725;42.758;26.702;2022-07-01T04:06:14;99119.00;;;19.20
68743;BMP180;55725;42.758;26.702;2022-07-01T04:07:54;99125.00;;;19.60
68743;BMP180;55725;42.758;26.702;2022-07-01T04:09:34;99115.00;;;19.90
68743;BMP180;55725;42.758;26.702;2022-07-01T04:11:15;99118.00;;;19.80
68743;BMP180;55725;42.758;26.702;2022-07-01T04:12:56;99122.00;;;19.70
68743;BMP180;55725;42.758;26.702;2022-07-01T04:14:36;99124.00;;;19.80
68743;BMP180;55725;42.758;26.702;2022-07-01T04:16:17;99124.00;;;19.70
68743;BMP180;55725;42.758;26.702;2022-07-01T04:17:57;99131.00;;;19.80
68743;BMP180;55725;42.758;26.702;2022-07-01T04:19:37;99143.00;;;19.40
68743;BMP180;55725;42.758;26.702;2022-07-01T04:21:18;99135.00;;;19.80
68743;BMP180;55725;42.758;26.702;2022-07-01T04:23:16;99134.00;;;19.50
68743;BMP180;55725;42.758;26.702;2022-07-01T04:24:57;99134.00;;;19.20
68743;BMP180;55725;42.758;26.702;2022-07-01T04:26:37;99134.00;;;19.50
68743;BMP180;55725;42.758;26.702;2022-07-01T04:28:17;99137.00;;;19.40
68743;BMP180;55725;42.758;26.702;2022-07-01T04:29:58;99140.00;;;19.50
68743;BMP180;55725;42.758;26.702;2022-07-01T04:31:38;99137.00;;;19.70
68743;BMP180;55725;42.758;26.702;2022-07-01T04:33:18;99143.00;;;19.70
68743;BMP180;55725;42.758;26.702;2022-07-01T04:34:59;99149.00;;;19.80
68743;BMP180;55725;42.758;26.702;2022-07-01T04:36:39;99143.00;;;19.90
68743;BMP180;55725;42.758;26.702;2022-07-01T04:38:19;99152.00;;;19.50
68743;BMP180;55725;42.758;26.702;2022-07-01T04:40:00;99151.00;;;19.80
68743;BMP180;55725;42.758;26.702;2022-07-01T04:41:40;99151.00;;;19.80
68743;BMP180;55725;42.758;26.702;2022-07-01T04:43:39;99153.00;;;20.10
68743;BMP180;55725;42.758;26.702;2022-07-01T04:45:20;99149.00;;;20.30
68743;BMP180;55725;42.758;26.702;2022-07-01T04:47:00;99154.00;;;20.40
68743;BMP180;55725;42.758;26.702;2022-07-01T04:48:41;99163.00;;;20.40
68743;BMP180;55725;42.758;26.702;2022-07-01T04:50:21;99161.00;;;20.60
68743;BMP180;55725;42.758;26.702;2022-07-01T04:52:02;99163.00;;;20.70
68743;BMP180;55725;42.758;26.702;2022-07-01T04:53:42;99163.00;;;20.80
68743;BMP180;55725;42.758;26.702;2022-07-01T04:55:22;99169.00;;;21.00
68743;BMP180;55725;42.758;26.702;2022-07-01T04:57:03;99160.00;;;20.80
68743;BMP180;55725;42.758;26.702;2022-07-01T04:58:43;99157.00;;;20.80
68743;BMP180;55725;42.758;26.702;2022-07-01T05:00:23;99155.00;;;20.90
68743;BMP180;55725;42.758;26.702;2022-07-01T05:02:04;99162.00;;;21.30
68743;BMP180;55725;42.758;26.702;2022-07-01T05:03:44;99153.00;;;21.70
68743;BMP180;55725;42.758;26.702;2022-07-01T05:05:25;99165.00;;;21.50
68743;BMP180;55725;42.758;26.702;2022-07-01T05:07:05;99163.00;;;21.70
68743;BMP180;55725;42.758;26.702;2022-07-01T05:08:46;99165.00;;;21.50
68743;BMP180;55725;42.758;26.702;2022-07-01T05:10:27;99166.00;;;21.70
68743;BMP180;55725;42.758;26.702;2022-07-01T05:12:08;99155.00;;;21.80
68743;BMP180;55725;42.758;26.702;2022-07-01T05:13:49;99158.00;;;22.00
68743;BMP180;55725;42.758;26.702;2022-07-01T05:15:30;99155.00;;;22.10
68743;BMP180;55725;42.758;26.702;2022-07-01T05:17:10;99157.00;;;22.10
68743;BMP180;55725;42.758;26.702;2022-07-01T05:18:50;99165.00;;;22.30
68743;BMP180;55725;42.758;26.702;2022-07-01T05:20:49;99168.00;;;22.30
68743;BMP180;55725;42.758;26.702;2022-07-01T05:22:48;99154.00;;;22.60
68743;BMP180;55725;42.758;26.702;2022-07-01T05:24:30;99160.00;;;22.50
68743;BMP180;55725;42.758;26.702;2022-07-01T05:26:11;99153.00;;;22.10
68743;BMP180;55725;42.758;26.702;2022-07-01T05:27:56;99156.00;;;22.00
68743;BMP180;55725;42.758;26.702;2022-07-01T05:29:36;99156.00;;;21.80
68743;BMP180;55725;42.758;26.702;2022-07-01T05:31:16;99155.00;;;22.20
68743;BMP180;55725;42.758;26.702;2022-07-01T05:32:57;99162.00;;;22.50
68743;BMP180;55725;42.758;26.702;2022-07-01T05:34:37;99162.00;;;22.80
68743;BMP180;55725;42.758;26.702;2022-07-01T05:36:20;99169.00;;;23.00
68743;BMP180;55725;42.758;26.702;2022-07-01T05:38:01;99167.00;;;22.50
68743;BMP180;55725;42.758;26.702;2022-07-01T05:39:41;99176.00;;;22.70
68743;BMP180;55725;42.758;26.702;2022-07-01T05:41:21;99174.00;;;22.60
68743;BMP180;55725;42.758;26.702;2022-07-01T05:43:02;99177.00;;;22.60
68743;BMP180;55725;42.758;26.702;2022-07-01T05:44:42;99172.00;;;22.70
68743;BMP180;55725;42.758;26.702;2022-07-01T05:46:22;99168.00;;;23.00
68743;BMP180;55725;42.758;26.702;2022-07-01T05:48:04;99165.00;;;23.60
68743;BMP180;55725;42.758;26.702;2022-07-01T05:49:44;99167.00;;;23.60
68743;BMP180;55725;42.758;26.702;2022-07-01T05:51:25;99159.00;;;23.00
68743;BMP180;55725;42.758;26.702;2022-07-01T05:53:06;99163.00;;;23.60
68743;BMP180;55725;42.758;26.702;2022-07-01T05:54:46;99171.00;;;23.70
68743;BMP180;55725;42.758;26.702;2022-07-01T05:56:26;99171.00;;;23.50
68743;BMP180;55725;42.758;26.702;2022-07-01T05:58:06;99171.00;;;23.50
68743;BMP180;55725;42.758;26.702;2022-07-01T05:59:48;99159.00;;;23.90
68743;BMP180;55725;42.758;26.702;2022-07-01T06:01:28;99174.00;;;23.90
68743;BMP180;55725;42.758;26.702;2022-07-01T06:03:10;99166.00;;;23.60
68743;BMP180;55725;42.758;26.702;2022-07-01T06:04:51;99165.00;;;23.90
68743;BMP180;55725;42.758;26.702;2022-07-01T06:06:31;99180.00;;;24.00
68743;BMP180;55725;42.758;26.702;2022-07-01T06:08:12;99172.00;;;24.20
68743;BMP180;55725;42.758;26.702;2022-07-01T06:09:52;99176.00;;;24.10
68743;BMP180;55725;42.758;26.702;2022-07-01T06:11:32;99169.00;;;24.00
68743;BMP180;55725;42.758;26.702;2022-07-01T06:13:13;99171.00;;;24.10
68743;BMP180;55725;42.758;26.702;2022-07-01T06:14:54;99173.00;;;24.20
68743;BMP180;55725;42.758;26.702;2022-07-01T06:16:34;99174.00;;;24.60
68743;BMP180;55725;42.758;26.702;2022-07-01T06:18:15;99175.00;;;24.50
68743;BMP180;55725;42.758;26.702;2022-07-01T06:19:55;99178.00;;;24.70
68743;BMP180;55725;42.758;26.702;2022-07-01T06:21:35;99176.00;;;24.70
68743;BMP180;55725;42.758;26.702;2022-07-01T06:23:16;99173.00;;;25.20
68743;BMP180;55725;42.758;26.702;2022-07-01T06:24:56;99182.00;;;25.00
68743;BMP180;55725;42.758;26.702;2022-07-01T06:26:37;99191.00;;;24.80
68743;BMP180;55725;42.758;26.702;2022-07-01T06:28:17;99188.00;;;24.50
68743;BMP180;55725;42.758;26.702;2022-07-01T06:29:57;99170.00;;;24.70
68743;BMP180;55725;42.758;26.702;2022-07-01T06:31:37;99170.00;;;24.80
68743;BMP180;55725;42.758;26.702;2022-07-01T06:33:18;99190.00;;;25.20
68743;BMP180;55725;42.758;26.702;2022-07-01T06:34:58;99189.00;;;25.30
68743;BMP180;55725;42.758;26.702;2022-07-01T06:36:39;99200.00;;;25.10
68743;BMP180;55725;42.758;26.702;2022-07-01T06:38:19;99178.00;;;25.50
68743;BMP180;55725;42.758;26.702;2022-07-01T06:40:00;99174.00;;;25.50
68743;BMP180;55725;42.758;26.702;2022-07-01T06:41:40;99202.00;;;25.30
68743;BMP180;55725;42.758;26.702;2022-07-01T06:43:21;99168.00;;;25.40
68743;BMP180;55725;42.758;26.702;2022-07-01T06:45:01;99167.00;;;25.90
68743;BMP180;55725;42.758;26.702;2022-07-01T06:46:41;99169.00;;;26.20
68743;BMP180;55725;42.758;26.702;2022-07-01T06:48:22;99189.00;;;26.40
68743;BMP180;55725;42.758;26.702;2022-07-01T06:50:02;99165.00;;;26.00
68743;BMP180;55725;42.758;26.702;2022-07-01T06:51:43;99174.00;;;26.30
68743;BMP180;55725;42.758;26.702;2022-07-01T06:53:24;99159.00;;;26.10
68743;BMP180;55725;42.758;26.702;2022-07-01T06:55:04;99186.00;;;26.50
68743;BMP180;55725;42.758;26.702;2022-07-01T06:56:44;99187.00;;;26.40
68743;BMP180;55725;42.758;26.702;2022-07-01T06:58:25;99176.00;;;26.90
68743;BMP180;55725;42.758;26.702;2022-07-01T07:00:05;99171.00;;;26.30
68743;BMP180;55725;42.758;26.702;2022-07-01T07:01:46;99183.00;;;26.30
68743;BMP180;55725;42.758;26.702;2022-07-01T07:03:26;99191.00;;;26.30
68743;BMP180;55725;42.758;26.702;2022-07-01T07:05:07;99179.00;;;26.70
68743;BMP180;55725;42.758;26.702;2022-07-01T07:06:47;99160.00;;;26.90
68743;BMP180;55725;42.758;26.702;2022-07-01T07:08:28;99148.00;;;27.20
68743;BMP180;55725;42.758;26.702;2022-07-01T07:10:08;99162.00;;;27.10
68743;BMP180;55725;42.758;26.702;2022-07-01T07:11:49;99153.00;;;26.90
68743;BMP180;55725;42.758;26.702;2022-07-01T07:13:29;99162.00;;;27.10
68743;BMP180;55725;42.758;26.702;2022-07-01T07:15:10;99160.00;;;27.60
68743;BMP180;55725;42.758;26.702;2022-07-01T07:16:50;99164.00;;;27.80
68743;BMP180;55725;42.758;26.702;2022-07-01T07:18:31;99160.00;;;27.50
68743;BMP180;55725;42.758;26.702;2022-07-01T07:20:11;99165.00;;;27.70
68743;BMP180;55725;42.758;26.702;2022-07-01T07:21:52;99181.00;;;27.70
68743;BMP180;55725;42.758;26.702;2022-07-01T07:23:32;99170.00;;;27.50
68743;BMP180;55725;42.758;26.702;2022-07-01T07:25:12;99168.00;;;27.60
68743;BMP180;55725;42.758;26.702;2022-07-01T07:26:53;99168.00;;;27.50
68743;BMP180;55725;42.758;26.702;2022-07-01T07:28:33;99170.00;;;27.80
68743;BMP180;55725;42.758;26.702;2022-07-01T07:30:13;99173.00;;;27.90
68743;BMP180;55725;42.758;26.702;2022-07-01T07:31:54;99174.00;;;27.70
68743;BMP180;55725;42.758;26.702;2022-07-01T07:33:34;99181.00;;;28.00
68743;BMP180;55725;42.758;26.702;2022-07-01T07:35:15;99163.00;;;28.10
68743;BMP180;55725;42.758;26.702;2022-07-01T07:36:55;99182.00;;;28.30
68743;BMP180;55725;42.758;26.702;2022-07-01T07:38:38;99180.00;;;28.00
68743;BMP180;55725;42.758;26.702;2022-07-01T07:40:19;99176.00;;;27.80
68743;BMP180;55725;42.758;26.702;2022-07-01T07:41:59;99177.00;;;27.80
68743;BMP180;55725;42.758;26.702;2022-07-01T07:43:39;99170.00;;;28.10
68743;BMP180;55725;42.758;26.702;2022-07-01T07:45:20;99168.00;;;28.40
68743;BMP180;55725;42.758;26.702;2022-07-01T07:47:01;99175.00;;;28.00
68743;BMP180;55725;42.758;26.702;2022-07-01T07:48:41;99169.00;;;28.10
68743;BMP180;55725;42.758;26.702;2022-07-01T07:50:23;99171.00;;;28.40
68743;BMP180;55725;42.758;26.702;2022-07-01T07:52:03;99174.00;;;28.30
68743;BMP180;55725;42.758;26.702;2022-07-01T07:53:44;99180.00;;;28.50
68743;BMP180;55725;42.758;26.702;2022-07-01T07:55:24;99177.00;;;28.70
68743;BMP180;55725;42.758;26.702;2022-07-01T07:57:05;99166.00;;;28.60
68743;BMP180;55725;42.758;26.702;2022-07-01T07:58:46;99182.00;;;28.80
68743;BMP180;55725;42.758;26.702;2022-07-01T08:00:27;99172.00;;;28.80
68743;BMP180;55725;42.758;26.702;2022-07-01T08:02:08;99174.00;;;28.90
68743;BMP180;55725;42.758;26.702;2022-07-01T08:03:48;99177.00;;;28.90
68743;BMP180;55725;42.758;26.702;2022-07-01T08:05:29;99172.00;;;28.80
68743;BMP180;55725;42.758;26.702;2022-07-01T08:07:09;99171.00;;;28.80
68743;BMP180;55725;42.758;26.702;2022-07-01T08:08:49;99176.00;;;29.00
68743;BMP180;55725;42.758;26.702;2022-07-01T08:10:30;99174.00;;;29.40
68743;BMP180;55725;42.758;26.702;2022-07-01T08:12:11;99170.00;;;29.10
68743;BMP180;55725;42.758;26.702;2022-07-01T08:13:51;99175.00;;;29.00
68743;BMP180;55725;42.758;26.702;2022-07-01T08:15:32;99173.00;;;29.60
68743;BMP180;55725;42.758;26.702;2022-07-01T08:17:13;99175.00;;;29.40
68743;BMP180;55725;42.758;26.702;2022-07-01T08:18:53;99177.00;;;29.60
68743;BMP180;55725;42.758;26.702;2022-07-01T08:20:33;99178.00;;;29.30
68743;BMP180;55725;42.758;26.702;2022-07-01T08:22:13;99178.00;;;29.70
68743;BMP180;55725;42.758;26.702;2022-07-01T08:23:54;99169.00;;;29.40
68743;BMP180;55725;42.758;26.702;2022-07-01T08:25:34;99165.00;;;29.60
68743;BMP180;55725;42.758;26.702;2022-07-01T08:27:14;99167.00;;;30.00
68743;BMP180;55725;42.758;26.702;2022-07-01T08:28:55;99171.00;;;30.30
68743;BMP180;55725;42.758;26.702;2022-07-01T08:30:35;99172.00;;;30.00
68743;BMP180;55725;42.758;26.702;2022-07-01T08:32:15;99164.00;;;30.00
68743;BMP180;55725;42.758;26.702;2022-07-01T08:33:56;99171.00;;;29.90
68743;BMP180;55725;42.758;26.702;2022-07-01T08:35:37;99174.00;;;30.30
68743;BMP180;55725;42.758;26.702;2022-07-01T08:37:17;99156.00;;;29.60
68743;BMP180;55725;42.758;26.702;2022-07-01T08:38:57;99170.00;;;30.40
68743;BMP180;55725;42.758;26.702;2022-07-01T08:40:38;99169.00;;;30.60
68743;BMP180;55725;42.758;26.702;2022-07-01T08:42:18;99156.00;;;30.00
68743;BMP180;55725;42.758;26.702;2022-07-01T08:43:58;99155.00;;;30.00
68743;BMP180;55725;42.758;26.702;2022-07-01T08:45:39;99163.00;;;30.80
68743;BMP180;55725;42.758;26.702;2022-07-01T08:47:19;99165.00;;;30.20
68743;BMP180;55725;42.758;26.702;2022-07-01T08:48:59;99163.00;;;30.80
68743;BMP180;55725;42.758;26.702;2022-07-01T08:50:40;99159.00;;;30.80
68743;BMP180;55725;42.758;26.702;2022-07-01T08:52:20;99149.00;;;30.90
68743;BMP180;55725;42.758;26.702;2022-07-01T08:54:01;99156.00;;;31.20
68743;BMP180;55725;42.758;26.702;2022-07-01T08:55:41;99147.00;;;31.10
68743;BMP180;55725;42.758;26.702;2022-07-01T08:57:40;99198.00;;;30.70
68743;BMP180;55725;42.758;26.702;2022-07-01T08:59:24;99208.00;;;30.20
68743;BMP180;55725;42.758;26.702;2022-07-01T09:01:11;99207.00;;;30.10
68743;BMP180;55725;42.758;26.702;2022-07-01T09:02:59;99203.00;;;30.60
68743;BMP180;55725;42.758;26.702;2022-07-01T09:04:39;99186.00;;;30.70
68743;BMP180;55725;42.758;26.702;2022-07-01T09:06:21;99152.00;;;31.30
68743;BMP180;55725;42.758;26.702;2022-07-01T09:08:05;99153.00;;;31.30
68743;BMP180;55725;42.758;26.702;2022-07-01T09:09:46;99158.00;;;31.50
68743;BMP180;55725;42.758;26.702;2022-07-01T09:11:26;99157.00;;;31.10
68743;BMP180;55725;42.758;26.702;2022-07-01T09:13:07;99160.00;;;31.70
68743;BMP180;55725;42.758;26.702;2022-07-01T09:14:48;99154.00;;;31.70
68743;BMP180;55725;42.758;26.702;2022-07-01T09:16:28;99157.00;;;31.40
68743;BMP180;55725;42.758;26.702;2022-07-01T09:18:10;99157.00;;;30.80
68743;BMP180;55725;42.758;26.702;2022-07-01T09:19:50;99165.00;;;31.00
68743;BMP180;55725;42.758;26.702;2022-07-01T09:21:32;99210.00;;;31.50
68743;BMP180;55725;42.758;26.702;2022-07-01T09:23:13;99223.00;;;30.40
68743;BMP180;55725;42.758;26.702;2022-07-01T09:24:54;99164.00;;;30.70
68743;BMP180;55725;42.758;26.702;2022-07-01T09:26:34;99160.00;;;30.90
68743;BMP180;55725;42.758;26.702;2022-07-01T09:28:16;99161.00;;;32.10
68743;BMP180;55725;42.758;26.702;2022-07-01T09:29:56;99162.00;;;31.80
68743;BMP180;55725;42.758;26.702;2022-07-01T09:31:37;99168.00;;;32.00
68743;BMP180;55725;42.758;26.702;2022-07-01T09:33:27;99160.00;;;31.50